createdAt,value
2018-02-15T00:00:50.330Z,31.57
2018-02-15T00:03:17.942Z,31.47
2018-02-15T00:05:45.401Z,30.03
2018-02-15T00:08:12.859Z,27.20
2018-02-15T00:10:40.358Z,32.90
2018-02-15T00:13:07.817Z,29.60
2018-02-15T00:15:35.310Z,31.80
2018-02-15T00:18:02.777Z,32.43
2018-02-15T00:20:30.278Z,32.77
2018-02-15T00:22:57.742Z,27.70
2018-02-15T00:25:25.209Z,25.23
2018-02-15T00:27:52.680Z,27.97
2018-02-15T00:30:20.154Z,33.27
2018-02-15T00:32:47.644Z,32.90
2018-02-15T00:35:15.103Z,28.90
2018-02-15T00:37:42.561Z,34.13
2018-02-15T00:40:10.030Z,33.47
2018-02-15T00:42:37.499Z,29.07
2018-02-15T00:45:04.986Z,32.60
2018-02-15T00:47:32.518Z,34.23
2018-02-15T00:49:59.978Z,34.97
2018-02-15T00:52:27.473Z,34.80
2018-02-15T00:54:54.936Z,35.60
2018-02-15T00:57:22.410Z,32.80
2018-02-15T00:59:49.885Z,33.70
2018-02-15T01:02:17.358Z,32.17
2018-02-15T01:04:44.842Z,30.80
2018-02-15T01:07:12.328Z,33.93
2018-02-15T01:09:39.789Z,34.13
2018-02-15T01:12:07.274Z,36.00
2018-02-15T01:14:34.775Z,36.70
2018-02-15T01:17:02.230Z,37.97
2018-02-15T01:19:29.733Z,37.80
2018-02-15T01:21:57.193Z,28.57
2018-02-15T01:24:24.651Z,27.90
2018-02-15T01:26:52.137Z,34.93
2018-02-15T01:29:19.605Z,35.20
2018-02-15T01:31:47.062Z,32.37
2018-02-15T01:34:14.545Z,31.37
2018-02-15T01:36:42.016Z,28.33
2018-02-15T01:39:09.477Z,32.37
2018-02-15T01:41:36.954Z,31.90
2018-02-15T01:44:04.441Z,35.90
2018-02-15T01:46:31.910Z,34.93
2018-02-15T01:48:59.397Z,36.73
2018-02-15T01:51:26.882Z,35.13
2018-02-15T01:53:54.351Z,38.20
2018-02-15T01:56:21.820Z,32.27
2018-02-15T01:58:49.301Z,41.57
2018-02-15T02:01:16.758Z,36.60
2018-02-15T02:03:44.254Z,32.40
2018-02-15T02:06:11.758Z,38.47
2018-02-15T02:08:39.231Z,39.00
2018-02-15T02:11:06.693Z,36.90
2018-02-15T02:13:34.194Z,43.23
2018-02-15T02:16:01.660Z,41.20
2018-02-15T02:18:29.129Z,42.87
2018-02-15T02:20:56.622Z,39.13
2018-02-15T02:23:24.105Z,39.50
2018-02-15T02:25:51.559Z,31.80
2018-02-15T02:28:19.021Z,37.50
2018-02-15T02:30:46.544Z,36.10
2018-02-15T02:33:14.018Z,35.40
2018-02-15T02:35:41.491Z,40.93
2018-02-15T02:38:08.981Z,34.63
2018-02-15T02:40:36.450Z,40.83
2018-02-15T02:43:03.909Z,33.20
2018-02-15T02:45:31.406Z,28.77
2018-02-15T02:47:58.875Z,32.87
2018-02-15T02:50:26.338Z,34.83
2018-02-15T02:52:53.802Z,31.20
2018-02-15T02:55:21.308Z,33.00
2018-02-15T02:57:48.770Z,29.70
2018-02-15T03:00:16.238Z,33.53
2018-02-15T03:02:43.723Z,33.90
2018-02-15T03:05:11.188Z,35.17
2018-02-15T03:07:38.659Z,29.30
2018-02-15T03:10:06.198Z,29.95
2018-02-15T03:12:33.667Z,19.77
2018-02-15T03:15:01.121Z,28.40
2018-02-15T03:17:28.613Z,31.10
2018-02-15T03:19:56.074Z,28.30
2018-02-15T03:22:23.581Z,31.80
2018-02-15T03:24:51.056Z,31.40
2018-02-15T03:27:18.513Z,20.33
2018-02-15T03:29:46.018Z,30.83
2018-02-15T03:32:13.470Z,31.90
2018-02-15T03:34:40.965Z,34.80
2018-02-15T03:37:08.463Z,30.87
2018-02-15T03:39:35.929Z,33.23
2018-02-15T03:42:03.402Z,33.55
2018-02-15T03:44:30.910Z,30.30
2018-02-15T03:46:58.462Z,22.87
2018-02-15T03:49:26.018Z,20.60
2018-02-15T03:51:53.517Z,29.30
2018-02-15T03:54:20.989Z,23.35
2018-02-15T03:56:48.455Z,17.30
2018-02-15T03:59:15.943Z,33.70
2018-02-15T04:01:43.411Z,33.07
2018-02-15T04:04:10.883Z,36.33
2018-02-15T04:06:38.371Z,32.63
2018-02-15T04:09:05.838Z,31.40
2018-02-15T04:11:33.306Z,31.63
2018-02-15T04:14:00.800Z,33.60
2018-02-15T04:16:28.258Z,31.70
2018-02-15T04:18:55.734Z,33.38
2018-02-15T04:21:23.215Z,25.63
2018-02-15T04:23:50.723Z,28.70
2018-02-15T04:26:18.186Z,30.43
2018-02-15T04:28:45.659Z,25.27
2018-02-15T04:31:13.194Z,33.63
2018-02-15T04:33:40.685Z,27.80
2018-02-15T04:36:08.153Z,37.80
2018-02-15T04:38:35.618Z,35.53
2018-02-15T04:41:03.177Z,33.97
2018-02-15T04:43:30.650Z,37.20
2018-02-15T04:45:58.157Z,26.03
2018-02-15T04:48:25.705Z,34.90
2018-02-15T04:50:53.238Z,36.40
2018-02-15T04:53:20.728Z,24.60
2018-02-15T04:55:48.224Z,21.77
2018-02-15T04:58:15.687Z,24.57
2018-02-15T05:00:43.192Z,23.70
2018-02-15T05:03:10.678Z,35.13
2018-02-15T05:05:38.152Z,34.20
2018-02-15T05:08:05.634Z,31.50
2018-02-15T05:10:33.225Z,21.23
2018-02-15T05:13:00.789Z,18.50
2018-02-15T05:15:28.256Z,26.50
2018-02-15T05:17:55.741Z,23.40
2018-02-15T05:20:23.218Z,33.03
2018-02-15T05:22:50.695Z,25.43
2018-02-15T05:25:18.178Z,19.77
2018-02-15T05:27:45.644Z,26.40
2018-02-15T05:30:13.109Z,26.63
2018-02-15T05:32:41.566Z,25.80
2018-02-15T05:35:09.024Z,25.57
2018-02-15T05:37:36.554Z,24.80
2018-02-15T05:40:04.030Z,20.27
2018-02-15T05:42:31.506Z,21.70
2018-02-15T05:44:59.051Z,26.58
2018-02-15T05:47:26.505Z,31.87
2018-02-15T05:49:53.970Z,22.80
2018-02-15T05:52:21.459Z,17.40
2018-02-15T05:54:48.924Z,20.30
2018-02-15T05:57:16.404Z,23.52
2018-02-15T05:59:43.903Z,20.00
2018-02-15T06:02:13.688Z,28.00
2018-02-15T06:04:41.147Z,26.27
2018-02-15T06:07:08.676Z,30.00
2018-02-15T06:09:36.162Z,25.40
2018-02-15T06:12:03.685Z,32.80
2018-02-15T06:14:31.195Z,27.87
2018-02-15T06:16:58.718Z,26.83
2018-02-15T06:19:26.228Z,28.17
2018-02-15T06:21:53.752Z,28.37
2018-02-15T06:24:21.258Z,27.73
2018-02-15T06:26:48.758Z,30.27
2018-02-15T06:29:16.301Z,31.10
2018-02-15T06:31:43.793Z,33.07
2018-02-15T06:34:11.298Z,33.20
2018-02-15T06:36:38.840Z,32.10
2018-02-15T06:39:06.421Z,23.37
2018-02-15T06:41:33.914Z,32.60
2018-02-15T06:44:01.446Z,18.90
2018-02-15T06:46:28.944Z,26.20
2018-02-15T06:48:56.452Z,34.57
2018-02-15T06:51:24.009Z,32.10
2018-02-15T06:53:51.514Z,29.07
2018-02-15T06:56:19.852Z,31.70
2018-02-15T06:58:47.391Z,20.53
2018-02-15T07:01:14.906Z,22.20
2018-02-15T07:03:42.404Z,18.40
2018-02-15T07:06:09.919Z,29.30
2018-02-15T07:08:37.459Z,29.03
2018-02-15T07:11:04.963Z,34.80
2018-02-15T07:13:32.495Z,25.07
2018-02-15T07:16:00.029Z,30.37
2018-02-15T07:18:27.539Z,20.53
2018-02-15T07:20:55.049Z,18.27
2018-02-15T07:23:22.608Z,24.60
2018-02-15T07:25:50.104Z,29.80
2018-02-15T07:28:17.607Z,25.93
2018-02-15T07:30:45.128Z,14.43
2018-02-15T07:33:12.618Z,32.67
2018-02-15T07:35:40.205Z,23.15
2018-02-15T07:38:07.710Z,25.17
2018-02-15T07:40:35.205Z,27.17
2018-02-15T07:43:02.720Z,29.63
2018-02-15T07:45:30.333Z,22.57
2018-02-15T07:47:57.837Z,24.47
2018-02-15T07:50:25.414Z,34.20
2018-02-15T07:52:52.946Z,31.00
2018-02-15T07:55:20.443Z,33.00
2018-02-15T07:57:47.941Z,23.30
2018-02-15T08:00:15.455Z,25.77
2018-02-15T08:02:42.966Z,34.90
2018-02-15T08:05:10.455Z,18.30
2018-02-15T08:07:37.964Z,25.53
2018-02-15T08:10:05.524Z,22.13
2018-02-15T08:12:33.048Z,27.00
2018-02-15T08:15:00.547Z,30.87
2018-02-15T08:17:28.046Z,24.67
2018-02-15T08:19:55.567Z,29.83
2018-02-15T08:22:23.093Z,26.10
2018-02-15T08:24:50.594Z,28.93
2018-02-15T08:27:18.090Z,23.80
2018-02-15T08:29:45.619Z,20.70
2018-02-15T08:32:13.133Z,21.10
2018-02-15T08:34:40.647Z,24.77
2018-02-15T08:37:08.148Z,25.40
2018-02-15T08:39:35.642Z,28.60
2018-02-15T08:42:03.155Z,35.97
2018-02-15T08:44:30.668Z,27.30
2018-02-15T08:46:58.174Z,26.50
2018-02-15T08:49:25.666Z,21.07
2018-02-15T08:51:53.189Z,22.33
2018-02-15T08:54:20.688Z,28.57
2018-02-15T08:56:48.199Z,28.57
2018-02-15T08:59:15.750Z,22.97
2018-02-15T09:01:43.260Z,29.20
2018-02-15T09:04:10.798Z,30.77
2018-02-15T09:06:38.326Z,30.63
2018-02-15T09:09:05.822Z,29.03
2018-02-15T09:11:33.367Z,20.30
2018-02-15T09:14:00.880Z,25.87
2018-02-15T09:16:28.386Z,31.77
2018-02-15T09:18:55.952Z,23.10
2018-02-15T09:21:23.526Z,16.00
2018-02-15T09:23:51.022Z,27.13
2018-02-15T09:26:18.520Z,19.90
2018-02-15T09:28:46.053Z,18.50
2018-02-15T09:31:13.543Z,18.07
2018-02-15T09:33:41.111Z,18.07
2018-02-15T09:36:08.652Z,24.30
2018-02-15T09:41:10.110Z,14.63
2018-02-15T09:43:37.634Z,20.87
2018-02-15T09:46:05.130Z,24.77
2018-02-15T09:48:32.630Z,16.80
2018-02-15T09:51:00.161Z,13.80
2018-02-15T09:53:27.663Z,20.60
2018-02-15T09:55:55.171Z,23.13
2018-02-15T09:58:22.690Z,20.70
2018-02-15T10:00:50.288Z,22.73
2018-02-15T10:03:17.798Z,25.30
2018-02-15T10:05:45.421Z,25.50
2018-02-15T10:08:12.958Z,16.73
2018-02-15T10:10:40.467Z,22.57
2018-02-15T10:13:08.085Z,24.13
2018-02-15T10:15:35.569Z,23.07
2018-02-15T10:18:03.060Z,24.30
2018-02-15T10:20:30.581Z,23.17
2018-02-15T10:22:58.072Z,25.37
2018-02-15T10:25:25.567Z,24.33
2018-02-15T10:27:53.138Z,25.97
2018-02-15T10:30:20.923Z,18.73
2018-02-15T10:32:48.451Z,20.90
2018-02-15T10:35:15.973Z,23.43
2018-02-15T10:37:43.579Z,16.20
2018-02-15T10:40:11.128Z,20.27
2018-02-15T10:42:38.693Z,25.93
2018-02-15T10:45:06.255Z,15.17
2018-02-15T10:47:33.771Z,21.83
2018-02-15T10:50:01.370Z,15.00
2018-02-15T10:52:28.865Z,20.00
2018-02-15T10:54:56.515Z,22.80
2018-02-15T10:57:24.007Z,23.77
2018-02-15T10:59:51.523Z,14.23
2018-02-15T11:02:22.860Z,21.60
2018-02-15T11:04:56.064Z,21.57
2018-02-15T11:07:23.589Z,19.50
2018-02-15T11:09:51.173Z,19.47
2018-02-15T11:12:18.666Z,16.10
2018-02-15T11:14:46.301Z,18.33
2018-02-15T11:17:13.795Z,19.63
2018-02-15T11:19:41.300Z,23.23
2018-02-15T11:22:08.854Z,22.00
2018-02-15T11:24:36.348Z,19.60
2018-02-15T11:27:03.884Z,20.83
2018-02-15T11:29:31.413Z,16.40
2018-02-15T11:31:58.911Z,13.40
2018-02-15T11:34:26.405Z,15.80
2018-02-15T11:36:53.929Z,19.93
2018-02-15T11:39:21.427Z,24.20
2018-02-15T11:41:49.266Z,16.97
2018-02-15T11:44:16.770Z,21.63
2018-02-15T11:46:44.263Z,21.80
2018-02-15T11:49:11.791Z,23.17
2018-02-15T11:51:39.386Z,18.17
2018-02-15T11:54:06.883Z,21.03
2018-02-15T11:56:34.585Z,19.60
2018-02-15T11:59:02.088Z,24.60
2018-02-15T12:01:29.589Z,17.97
2018-02-15T12:03:57.102Z,20.97
2018-02-15T12:06:24.591Z,20.87
2018-02-15T12:08:52.090Z,19.40
2018-02-15T12:11:19.598Z,18.10
2018-02-15T12:13:47.093Z,20.27
2018-02-15T12:16:14.594Z,26.70
2018-02-15T12:18:42.110Z,19.30
2018-02-15T12:21:09.640Z,20.43
2018-02-15T12:23:37.120Z,17.93
2018-02-15T12:26:04.655Z,21.87
2018-02-15T12:28:32.157Z,23.30
2018-02-15T12:30:59.693Z,18.77
2018-02-15T12:33:27.205Z,17.07
2018-02-15T12:35:54.699Z,22.60
2018-02-15T12:38:22.257Z,22.00
2018-02-15T12:40:49.909Z,24.60
2018-02-15T12:43:17.391Z,22.20
2018-02-15T12:45:44.940Z,21.50
2018-02-15T12:48:12.431Z,21.70
2018-02-15T12:50:39.990Z,17.73
2018-02-15T12:53:07.547Z,14.83
2018-02-15T12:55:35.029Z,22.40
2018-02-15T12:58:02.528Z,18.37
2018-02-15T13:00:30.124Z,23.03
2018-02-15T13:02:57.621Z,14.97
2018-02-15T13:05:25.123Z,15.87
2018-02-15T13:07:52.657Z,23.30
2018-02-15T13:10:20.263Z,17.53
2018-02-15T13:12:59.684Z,25.43
2018-02-15T13:15:39.102Z,16.07
2018-02-15T13:18:06.598Z,17.53
2018-02-15T13:20:34.109Z,13.50
2018-02-15T13:23:01.622Z,17.13
2018-02-15T13:25:29.119Z,21.20
2018-02-15T13:28:08.331Z,24.67
2018-02-15T13:30:35.855Z,25.67
2018-02-15T13:33:03.347Z,24.63
2018-02-15T13:35:30.964Z,28.50
2018-02-15T13:37:58.472Z,20.10
2018-02-15T13:40:25.985Z,25.83
2018-02-15T13:42:53.490Z,29.70
2018-02-15T13:45:20.990Z,19.20
2018-02-15T13:47:48.508Z,24.60
2018-02-15T13:50:15.999Z,23.63
2018-02-15T13:52:43.570Z,24.40
2018-02-15T13:55:11.130Z,23.60
2018-02-15T13:57:38.624Z,24.20
2018-02-15T14:00:06.116Z,16.40
2018-02-15T14:02:33.638Z,25.37
2018-02-15T14:05:01.133Z,17.67
2018-02-15T14:07:28.732Z,23.47
2018-02-15T14:09:56.279Z,27.17
2018-02-15T14:12:23.855Z,26.73
2018-02-15T14:14:51.345Z,26.80
2018-02-15T14:17:18.941Z,23.30
2018-02-15T14:19:46.436Z,21.33
2018-02-15T14:22:13.979Z,25.47
2018-02-15T14:24:41.487Z,20.27
2018-02-15T14:27:09.103Z,25.33
2018-02-15T14:29:36.586Z,24.93
2018-02-15T14:32:04.099Z,24.87
2018-02-15T14:34:31.640Z,26.37
2018-02-15T14:36:59.133Z,27.53
2018-02-15T14:39:26.680Z,29.00
2018-02-15T14:41:54.189Z,27.50
2018-02-15T14:44:21.681Z,26.80
2018-02-15T14:46:49.261Z,28.13
2018-02-15T14:49:16.758Z,28.17
2018-02-15T14:51:44.256Z,26.60
2018-02-15T14:54:11.774Z,28.10
2018-02-15T14:56:39.261Z,25.50
2018-02-15T14:59:06.763Z,24.07
2018-02-15T15:01:34.277Z,25.17
2018-02-15T15:04:01.806Z,25.20
2018-02-15T15:06:29.355Z,31.33
2018-02-15T15:08:56.885Z,27.03
2018-02-15T15:11:24.382Z,26.60
2018-02-15T15:13:51.883Z,25.67
2018-02-15T15:16:19.458Z,24.53
2018-02-15T15:18:46.987Z,23.30
2018-02-15T15:21:14.504Z,25.77
2018-02-15T15:23:42.013Z,30.40
2018-02-15T15:26:09.594Z,26.47
2018-02-15T15:28:37.090Z,22.73
2018-02-15T15:31:04.584Z,26.57
2018-02-15T15:33:32.190Z,28.87
2018-02-15T15:35:59.685Z,28.70
2018-02-15T15:38:27.175Z,23.30
2018-02-15T15:40:54.686Z,18.60
2018-02-15T15:43:22.190Z,22.00
2018-02-15T15:45:49.678Z,19.37
2018-02-15T15:48:17.208Z,18.13
2018-02-15T15:50:44.710Z,19.47
2018-02-15T15:53:12.211Z,19.50
2018-02-15T15:55:39.728Z,21.23
2018-02-15T15:58:07.224Z,26.00
2018-02-15T16:00:34.729Z,25.33
2018-02-15T16:03:02.239Z,23.63
2018-02-15T16:05:29.743Z,19.67
2018-02-15T16:07:57.391Z,24.40
2018-02-15T16:10:24.965Z,21.03
2018-02-15T16:12:52.458Z,21.30
2018-02-15T16:15:19.991Z,16.07
2018-02-15T16:17:47.486Z,19.63
2018-02-15T16:20:15.083Z,19.30
2018-02-15T16:22:42.603Z,20.80
2018-02-15T16:25:10.300Z,19.57
2018-02-15T16:27:37.863Z,20.70
2018-02-15T16:30:05.425Z,20.10
2018-02-15T16:32:32.915Z,16.20
2018-02-15T16:35:00.432Z,17.53
2018-02-15T16:37:27.949Z,17.00
2018-02-15T16:39:55.446Z,18.90
2018-02-15T16:42:22.943Z,19.83
2018-02-15T16:44:50.467Z,21.27
2018-02-15T16:47:17.959Z,18.73
2018-02-15T16:49:45.455Z,19.30
2018-02-15T16:52:12.961Z,32.23
2018-02-15T16:54:40.451Z,13.07
2018-02-15T16:57:08.267Z,20.37
2018-02-15T16:59:35.767Z,13.40
2018-02-15T17:02:03.278Z,21.10
2018-02-15T17:04:30.779Z,19.90
2018-02-15T17:06:58.268Z,17.57
2018-02-15T17:09:25.856Z,14.60
2018-02-15T17:11:53.344Z,18.00
2018-02-15T17:14:20.849Z,18.47
2018-02-15T17:16:48.363Z,18.87
2018-02-15T17:19:15.850Z,17.73
2018-02-15T17:21:43.362Z,19.80
2018-02-15T17:24:10.869Z,20.60
2018-02-15T17:26:38.366Z,18.30
2018-02-15T17:29:05.930Z,19.50
2018-02-15T17:31:33.421Z,16.60
2018-02-15T17:34:00.912Z,18.33
2018-02-15T17:36:28.428Z,18.50
2018-02-15T17:38:55.941Z,17.00
2018-02-15T17:41:23.437Z,18.83
2018-02-15T17:43:50.969Z,19.30
2018-02-15T17:46:18.458Z,20.93
2018-02-15T17:48:45.952Z,17.13
2018-02-15T17:51:13.479Z,16.00
2018-02-15T17:53:40.998Z,17.77
2018-02-15T17:56:08.492Z,16.70
2018-02-15T17:58:36.120Z,16.93
2018-02-15T18:01:03.618Z,15.33
2018-02-15T18:03:31.120Z,11.93
2018-02-15T18:05:58.713Z,18.70
2018-02-15T18:08:26.208Z,18.97
2018-02-15T18:10:53.695Z,19.73
2018-02-15T18:13:21.223Z,18.40
2018-02-15T18:15:48.713Z,20.67
2018-02-15T18:18:16.209Z,16.37
2018-02-15T18:20:43.855Z,20.93
2018-02-15T18:23:11.371Z,16.87
2018-02-15T18:25:39.188Z,18.10
2018-02-15T18:28:06.750Z,17.57
2018-02-15T18:30:34.423Z,20.60
2018-02-15T18:33:01.931Z,18.43
2018-02-15T18:35:29.832Z,21.93
2018-02-15T18:37:57.914Z,20.40
2018-02-15T18:40:25.435Z,19.47
2018-02-15T18:42:53.553Z,16.83
2018-02-15T18:45:21.051Z,20.60
2018-02-15T18:47:48.582Z,20.13
2018-02-15T18:50:16.430Z,17.10
2018-02-15T18:52:44.002Z,19.30
2018-02-15T18:55:11.522Z,19.07
2018-02-15T18:57:39.014Z,19.33
2018-02-15T19:00:06.896Z,18.37
2018-02-15T19:02:34.574Z,19.37
2018-02-15T19:05:02.971Z,19.03
2018-02-15T19:07:30.495Z,17.20
2018-02-15T19:09:58.007Z,18.93
2018-02-15T19:12:25.567Z,17.77
2018-02-15T19:14:53.076Z,17.43
2018-02-15T19:17:20.582Z,19.00
2018-02-15T19:19:48.076Z,19.87
2018-02-15T19:22:15.612Z,19.47
2018-02-15T19:24:43.170Z,16.33
2018-02-15T19:27:10.664Z,17.03
2018-02-15T19:29:38.984Z,19.13
2018-02-15T19:32:06.500Z,18.97
2018-02-15T19:34:33.994Z,18.80
2018-02-15T19:37:01.584Z,20.07
2018-02-15T19:39:29.147Z,20.87
2018-02-15T19:41:56.631Z,18.97
2018-02-15T19:44:24.159Z,16.97
2018-02-15T19:46:51.653Z,19.10
2018-02-15T19:49:19.141Z,22.70
2018-02-15T19:51:46.660Z,18.93
2018-02-15T19:54:14.162Z,16.23
2018-02-15T19:56:41.760Z,17.57
2018-02-15T19:59:09.290Z,18.03
2018-02-15T20:01:36.875Z,18.13
2018-02-15T20:04:04.370Z,25.00
2018-02-15T20:06:31.884Z,20.27
2018-02-15T20:08:59.555Z,20.50
2018-02-15T20:11:27.050Z,19.80
2018-02-15T20:13:54.651Z,19.57
2018-02-15T21:08:23.293Z,22.93
2018-02-15T21:10:50.794Z,28.13
2018-02-15T21:13:18.284Z,19.40
2018-02-15T21:15:45.859Z,21.40
2018-02-15T21:18:13.358Z,21.57
2018-02-15T21:20:40.881Z,21.90
2018-02-15T21:23:08.396Z,20.07
2018-02-15T21:25:35.906Z,18.77
2018-02-15T21:28:03.403Z,21.77
2018-02-15T21:30:31.003Z,18.40
2018-02-15T21:32:58.508Z,23.23
2018-02-15T21:35:26.047Z,22.40
2018-02-15T21:37:53.544Z,20.80
2018-02-15T21:40:21.044Z,23.07
2018-02-15T21:42:48.558Z,21.17
2018-02-15T21:45:16.053Z,23.70
2018-02-15T21:47:43.543Z,22.00
2018-02-15T21:50:11.176Z,24.00
2018-02-15T21:52:38.675Z,21.93
2018-02-15T21:55:06.172Z,21.20
2018-02-15T21:57:33.695Z,22.67
2018-02-15T22:00:01.265Z,22.07
2018-02-15T22:02:28.751Z,21.97
2018-02-15T22:04:56.257Z,21.80
2018-02-15T22:07:23.762Z,26.40
2018-02-15T22:09:51.296Z,24.03
2018-02-15T22:12:18.783Z,20.40
2018-02-15T22:14:46.271Z,34.07
2018-02-15T22:17:13.828Z,24.33
2018-02-15T22:19:41.334Z,27.70
2018-02-15T22:22:08.846Z,21.93
2018-02-15T22:24:36.314Z,26.23
2018-02-15T22:27:03.792Z,23.27
2018-02-15T22:29:31.338Z,23.60
2018-02-15T22:31:58.794Z,22.90
2018-02-15T22:34:26.286Z,28.80
2018-02-15T22:36:53.810Z,26.73
2018-02-15T22:39:21.277Z,24.73
2018-02-15T22:41:48.752Z,27.10
2018-02-15T22:44:16.233Z,26.40
2018-02-15T22:46:43.690Z,26.40
2018-02-15T22:49:11.150Z,25.70
2018-02-15T22:51:38.630Z,27.20
2018-02-15T22:54:06.091Z,27.40
2018-02-15T22:56:33.549Z,26.77
2018-02-15T22:59:01.033Z,27.30
2018-02-15T23:01:28.503Z,29.03
2018-02-15T23:03:55.959Z,26.83
2018-02-15T23:06:23.425Z,26.67
2018-02-15T23:08:50.916Z,28.40
2018-02-15T23:11:18.381Z,23.87
2018-02-15T23:13:45.847Z,29.00
2018-02-15T23:16:13.321Z,27.70
2018-02-15T23:18:40.852Z,24.67
2018-02-15T23:21:08.297Z,26.27
2018-02-15T23:23:35.827Z,29.47
2018-02-15T23:26:03.277Z,28.47
2018-02-15T23:28:30.897Z,26.60
2018-02-15T23:30:58.349Z,26.50
2018-02-15T23:33:25.800Z,23.50
2018-02-15T23:35:53.322Z,23.27
2018-02-15T23:38:20.789Z,26.23
2018-02-15T23:40:48.285Z,21.13
2018-02-15T23:43:15.742Z,28.57
2018-02-15T23:45:43.210Z,26.33
2018-02-15T23:48:10.686Z,23.63
2018-02-15T23:50:38.157Z,27.07
2018-02-15T23:53:05.611Z,26.30
2018-02-15T23:55:33.092Z,24.53
2018-02-15T23:58:00.558Z,29.10
